createdAt,value
2023-03-23T15:59:53.932Z,8.02
2023-03-23T16:04:58.213Z,7.72
2023-03-23T16:10:01.140Z,8.00
2023-03-23T16:15:04.164Z,6.70
2023-03-23T16:20:19.555Z,8.40
2023-03-23T16:25:22.582Z,8.45
2023-03-23T16:30:27.117Z,8.55
2023-03-23T16:35:31.643Z,8.35
2023-03-23T16:40:34.896Z,8.38
2023-03-23T16:45:38.341Z,8.13
2023-03-23T16:50:43.330Z,8.13
2023-03-23T16:55:48.443Z,9.20
2023-03-23T17:00:53.542Z,9.10
2023-03-23T17:05:57.652Z,7.47
2023-03-23T17:11:00.740Z,7.63
2023-03-23T17:16:03.721Z,8.05
2023-03-23T17:21:08.535Z,8.80
2023-03-23T17:26:11.497Z,11.70
2023-03-23T17:31:14.339Z,11.20
2023-03-23T17:36:18.653Z,8.60
2023-03-23T17:41:21.745Z,8.73
2023-03-23T17:46:24.862Z,8.57
2023-03-23T17:51:29.193Z,8.43
2023-03-23T17:56:31.989Z,8.80
2023-03-23T18:01:34.885Z,8.10
2023-03-23T18:06:39.200Z,10.27
2023-03-23T18:11:42.065Z,8.90
2023-03-23T18:16:44.989Z,8.50
2023-03-23T18:21:49.265Z,9.17
2023-03-23T18:26:52.061Z,9.23
2023-03-23T18:31:54.964Z,8.50
2023-03-23T18:36:59.218Z,8.60
2023-03-23T18:42:02.339Z,9.63
2023-03-23T18:47:05.568Z,10.73
2023-03-23T18:52:09.752Z,10.13
2023-03-23T18:57:12.693Z,10.45
2023-03-23T19:02:18.298Z,12.05
2023-03-23T19:07:22.560Z,13.18
2023-03-23T19:12:25.396Z,12.45
2023-03-23T19:17:28.280Z,12.60
2023-03-23T19:22:32.819Z,12.27
2023-03-23T19:32:41.166Z,13.65
2023-03-23T19:37:46.367Z,13.10
2023-03-23T19:42:49.202Z,13.88
2023-03-23T19:47:52.221Z,13.95
2023-03-23T19:52:58.390Z,15.10
2023-03-23T19:58:03.113Z,14.88
2023-03-23T20:03:06.307Z,15.23
2023-03-23T20:08:11.122Z,15.85
2023-03-23T20:13:14.073Z,16.48
2023-03-23T20:18:18.794Z,16.23
2023-03-23T20:23:23.106Z,15.73
2023-03-23T20:28:25.999Z,15.02
2023-03-23T20:33:30.526Z,16.53
2023-03-23T20:38:35.592Z,17.85
2023-03-23T20:43:39.232Z,16.23
2023-03-23T20:48:42.747Z,17.45
2023-03-23T20:53:48.434Z,15.35
2023-03-23T20:58:51.225Z,23.92
2023-03-23T21:03:54.390Z,19.17
2023-03-23T21:08:59.304Z,18.63
2023-03-23T21:14:02.470Z,19.00
2023-03-23T21:19:06.176Z,18.73
2023-03-23T21:24:11.978Z,18.55
2023-03-23T21:29:15.417Z,16.80
2023-03-23T21:34:18.390Z,19.00
2023-03-23T21:39:22.604Z,19.15
2023-03-23T21:44:25.512Z,19.67
2023-03-23T21:49:28.863Z,22.48
2023-03-23T21:54:34.323Z,25.53
2023-03-23T21:59:37.173Z,25.95
2023-03-23T22:04:40.002Z,26.90
2023-03-23T22:09:44.891Z,26.00
2023-03-23T22:14:47.895Z,24.80
2023-03-23T22:19:51.240Z,25.37
2023-03-23T22:24:55.471Z,25.15
2023-03-23T22:29:58.351Z,22.95
2023-03-23T22:35:01.263Z,25.30
2023-03-23T22:40:07.149Z,22.42
2023-03-23T22:45:10.437Z,24.15
2023-03-23T22:50:13.401Z,21.50
2023-03-23T22:55:17.932Z,20.77
2023-03-23T23:00:20.896Z,19.17
2023-03-23T23:05:23.745Z,16.50
2023-03-23T23:10:28.015Z,14.87
2023-03-23T23:15:30.924Z,14.77
2023-03-23T23:20:34.420Z,15.00
2023-03-23T23:25:39.513Z,13.93
2023-03-23T23:30:42.370Z,14.30
2023-03-23T23:35:45.549Z,15.02
2023-03-23T23:40:49.998Z,16.80
2023-03-23T23:45:52.846Z,15.32
2023-03-23T23:50:55.705Z,14.93
2023-03-23T23:56:03.696Z,14.83
